sensor_id;sensor_type;location;lat;lon;timestamp;P1;durP1;ratioP1;P2;durP2;ratioP2
75520;SDS011;64102;48.628;9.002;2023-10-13T00:01:55;10.65;;;1.13;;
75520;SDS011;64102;48.628;9.002;2023-10-13T00:04:30;7.15;;;0.80;;
75520;SDS011;64102;48.628;9.002;2023-10-13T00:07:03;6.63;;;0.50;;
75520;SDS011;64102;48.628;9.002;2023-10-13T00:09:29;6.28;;;0.60;;
75520;SDS011;64102;48.628;9.002;2023-10-13T00:12:01;7.32;;;0.80;;
75520;SDS011;64102;48.628;9.002;2023-10-13T00:14:28;6.03;;;0.75;;
75520;SDS011;64102;48.628;9.002;2023-10-13T00:17:00;6.57;;;0.50;;
75520;SDS011;64102;48.628;9.002;2023-10-13T00:19:29;7.72;;;0.63;;
75520;SDS011;64102;48.628;9.002;2023-10-13T00:22:11;7.03;;;0.60;;
75520;SDS011;64102;48.628;9.002;2023-10-13T00:24:41;7.70;;;0.52;;
75520;SDS011;64102;48.628;9.002;2023-10-13T00:27:17;6.65;;;0.90;;
75520;SDS011;64102;48.628;9.002;2023-10-13T00:30:05;7.15;;;0.80;;
75520;SDS011;64102;48.628;9.002;2023-10-13T00:32:51;7.55;;;0.70;;
75520;SDS011;64102;48.628;9.002;2023-10-13T00:40:19;7.03;;;0.50;;
75520;SDS011;64102;48.628;9.002;2023-10-13T00:42:57;8.98;;;0.93;;
75520;SDS011;64102;48.628;9.002;2023-10-13T00:45:43;6.13;;;0.50;;
75520;SDS011;64102;48.628;9.002;2023-10-13T00:48:25;6.32;;;0.40;;
75520;SDS011;64102;48.628;9.002;2023-10-13T00:51:07;7.15;;;0.50;;
75520;SDS011;64102;48.628;9.002;2023-10-13T00:53:41;7.75;;;0.93;;
75520;SDS011;64102;48.628;9.002;2023-10-13T00:56:07;7.80;;;0.55;;
75520;SDS011;64102;48.628;9.002;2023-10-13T00:58:35;8.95;;;0.52;;
75520;SDS011;64102;48.628;9.002;2023-10-13T01:01:04;6.47;;;0.47;;
75520;SDS011;64102;48.628;9.002;2023-10-13T01:03:54;6.80;;;0.57;;
75520;SDS011;64102;48.628;9.002;2023-10-13T01:06:24;6.43;;;0.77;;
75520;SDS011;64102;48.628;9.002;2023-10-13T01:08:56;5.97;;;0.40;;
75520;SDS011;64102;48.628;9.002;2023-10-13T01:11:24;6.72;;;0.63;;
75520;SDS011;64102;48.628;9.002;2023-10-13T01:13:52;6.72;;;0.50;;
75520;SDS011;64102;48.628;9.002;2023-10-13T01:16:19;6.25;;;0.50;;
75520;SDS011;64102;48.628;9.002;2023-10-13T01:18:48;5.80;;;0.45;;
75520;SDS011;64102;48.628;9.002;2023-10-13T01:21:17;7.65;;;0.60;;
75520;SDS011;64102;48.628;9.002;2023-10-13T01:23:45;8.02;;;0.80;;
75520;SDS011;64102;48.628;9.002;2023-10-13T01:26:12;6.70;;;0.50;;
75520;SDS011;64102;48.628;9.002;2023-10-13T01:28:41;6.32;;;0.80;;
75520;SDS011;64102;48.628;9.002;2023-10-13T01:31:11;6.13;;;0.63;;
75520;SDS011;64102;48.628;9.002;2023-10-13T01:33:50;6.32;;;0.50;;
75520;SDS011;64102;48.628;9.002;2023-10-13T01:36:19;6.53;;;0.50;;
75520;SDS011;64102;48.628;9.002;2023-10-13T01:38:48;5.75;;;0.40;;
75520;SDS011;64102;48.628;9.002;2023-10-13T01:41:15;7.40;;;0.52;;
75520;SDS011;64102;48.628;9.002;2023-10-13T01:43:40;6.70;;;0.50;;
75520;SDS011;64102;48.628;9.002;2023-10-13T01:46:06;8.23;;;0.50;;
75520;SDS011;64102;48.628;9.002;2023-10-13T01:48:31;7.25;;;0.52;;
75520;SDS011;64102;48.628;9.002;2023-10-13T01:51:04;8.63;;;0.60;;
75520;SDS011;64102;48.628;9.002;2023-10-13T01:53:30;7.13;;;0.80;;
75520;SDS011;64102;48.628;9.002;2023-10-13T01:55:56;5.93;;;0.40;;
75520;SDS011;64102;48.628;9.002;2023-10-13T01:58:24;8.88;;;0.88;;
75520;SDS011;64102;48.628;9.002;2023-10-13T02:00:51;6.82;;;0.80;;
75520;SDS011;64102;48.628;9.002;2023-10-13T02:03:17;6.82;;;0.73;;
75520;SDS011;64102;48.628;9.002;2023-10-13T02:05:43;7.75;;;0.50;;
75520;SDS011;64102;48.628;9.002;2023-10-13T02:08:12;6.53;;;0.57;;
75520;SDS011;64102;48.628;9.002;2023-10-13T02:10:42;5.95;;;0.63;;
75520;SDS011;64102;48.628;9.002;2023-10-13T02:13:10;7.85;;;0.50;;
75520;SDS011;64102;48.628;9.002;2023-10-13T02:15:40;9.43;;;0.70;;
75520;SDS011;64102;48.628;9.002;2023-10-13T02:18:07;7.82;;;1.08;;
75520;SDS011;64102;48.628;9.002;2023-10-13T02:20:34;6.72;;;0.60;;
75520;SDS011;64102;48.628;9.002;2023-10-13T02:23:06;5.53;;;0.63;;
75520;SDS011;64102;48.628;9.002;2023-10-13T02:25:35;7.75;;;0.60;;
75520;SDS011;64102;48.628;9.002;2023-10-13T02:28:07;5.65;;;0.50;;
75520;SDS011;64102;48.628;9.002;2023-10-13T02:30:39;6.40;;;0.70;;
75520;SDS011;64102;48.628;9.002;2023-10-13T02:33:13;7.57;;;0.60;;
75520;SDS011;64102;48.628;9.002;2023-10-13T02:35:42;6.25;;;0.80;;
75520;SDS011;64102;48.628;9.002;2023-10-13T02:38:11;6.32;;;0.68;;
75520;SDS011;64102;48.628;9.002;2023-10-13T02:40:37;7.90;;;0.98;;
75520;SDS011;64102;48.628;9.002;2023-10-13T02:43:06;5.65;;;0.45;;
75520;SDS011;64102;48.628;9.002;2023-10-13T02:45:32;9.82;;;0.68;;
75520;SDS011;64102;48.628;9.002;2023-10-13T02:48:01;8.75;;;0.80;;
75520;SDS011;64102;48.628;9.002;2023-10-13T02:50:42;7.50;;;0.52;;
75520;SDS011;64102;48.628;9.002;2023-10-13T02:53:09;6.50;;;0.50;;
75520;SDS011;64102;48.628;9.002;2023-10-13T02:55:37;6.43;;;0.43;;
75520;SDS011;64102;48.628;9.002;2023-10-13T02:58:18;6.40;;;0.45;;
75520;SDS011;64102;48.628;9.002;2023-10-13T03:00:44;6.57;;;0.80;;
75520;SDS011;64102;48.628;9.002;2023-10-13T03:03:10;7.13;;;0.55;;
75520;SDS011;64102;48.628;9.002;2023-10-13T03:05:39;6.97;;;0.57;;
75520;SDS011;64102;48.628;9.002;2023-10-13T03:08:05;9.75;;;0.50;;
75520;SDS011;64102;48.628;9.002;2023-10-13T03:10:31;6.53;;;0.55;;
75520;SDS011;64102;48.628;9.002;2023-10-13T03:12:57;6.38;;;0.50;;
75520;SDS011;64102;48.628;9.002;2023-10-13T03:15:23;11.35;;;0.63;;
75520;SDS011;64102;48.628;9.002;2023-10-13T03:17:55;5.97;;;0.50;;
75520;SDS011;64102;48.628;9.002;2023-10-13T03:20:24;5.72;;;0.47;;
75520;SDS011;64102;48.628;9.002;2023-10-13T03:22:56;7.82;;;0.63;;
75520;SDS011;64102;48.628;9.002;2023-10-13T03:25:22;7.72;;;0.70;;
75520;SDS011;64102;48.628;9.002;2023-10-13T03:27:50;8.73;;;0.70;;
75520;SDS011;64102;48.628;9.002;2023-10-13T03:30:16;6.57;;;0.60;;
75520;SDS011;64102;48.628;9.002;2023-10-13T03:32:42;5.78;;;0.57;;
75520;SDS011;64102;48.628;9.002;2023-10-13T03:35:12;7.88;;;0.90;;
75520;SDS011;64102;48.628;9.002;2023-10-13T03:37:42;6.18;;;0.40;;
75520;SDS011;64102;48.628;9.002;2023-10-13T03:40:11;6.80;;;0.70;;
75520;SDS011;64102;48.628;9.002;2023-10-13T03:45:25;8.32;;;0.40;;
75520;SDS011;64102;48.628;9.002;2023-10-13T03:47:51;7.97;;;0.60;;
75520;SDS011;64102;48.628;9.002;2023-10-13T03:50:17;6.75;;;0.57;;
75520;SDS011;64102;48.628;9.002;2023-10-13T03:52:54;5.57;;;0.50;;
75520;SDS011;64102;48.628;9.002;2023-10-13T03:55:23;6.43;;;0.90;;
75520;SDS011;64102;48.628;9.002;2023-10-13T03:57:51;6.13;;;0.50;;
75520;SDS011;64102;48.628;9.002;2023-10-13T04:00:17;6.60;;;0.55;;
75520;SDS011;64102;48.628;9.002;2023-10-13T04:02:49;4.45;;;0.50;;
75520;SDS011;64102;48.628;9.002;2023-10-13T04:05:33;7.82;;;0.60;;
75520;SDS011;64102;48.628;9.002;2023-10-13T04:08:02;5.38;;;0.47;;
75520;SDS011;64102;48.628;9.002;2023-10-13T04:10:49;5.78;;;0.50;;
75520;SDS011;64102;48.628;9.002;2023-10-13T04:13:16;7.45;;;0.95;;
75520;SDS011;64102;48.628;9.002;2023-10-13T04:16:00;7.13;;;0.70;;
75520;SDS011;64102;48.628;9.002;2023-10-13T04:18:59;6.45;;;0.60;;
75520;SDS011;64102;48.628;9.002;2023-10-13T04:21:26;9.10;;;1.30;;
75520;SDS011;64102;48.628;9.002;2023-10-13T04:24:04;6.97;;;0.60;;
75520;SDS011;64102;48.628;9.002;2023-10-13T04:26:42;7.10;;;0.55;;
75520;SDS011;64102;48.628;9.002;2023-10-13T04:29:28;5.82;;;0.45;;
75520;SDS011;64102;48.628;9.002;2023-10-13T04:32:11;6.35;;;1.10;;
75520;SDS011;64102;48.628;9.002;2023-10-13T04:37:12;6.82;;;0.65;;
75520;SDS011;64102;48.628;9.002;2023-10-13T04:40:12;5.63;;;0.40;;
75520;SDS011;64102;48.628;9.002;2023-10-13T04:42:39;6.68;;;1.00;;
75520;SDS011;64102;48.628;9.002;2023-10-13T04:45:14;8.13;;;0.70;;
75520;SDS011;64102;48.628;9.002;2023-10-13T04:48:01;5.97;;;0.50;;
75520;SDS011;64102;48.628;9.002;2023-10-13T04:50:53;8.35;;;0.70;;
75520;SDS011;64102;48.628;9.002;2023-10-13T04:53:44;7.28;;;0.50;;
75520;SDS011;64102;48.628;9.002;2023-10-13T04:56:25;7.30;;;0.70;;
75520;SDS011;64102;48.628;9.002;2023-10-13T04:59:06;8.38;;;0.63;;
75520;SDS011;64102;48.628;9.002;2023-10-13T05:02:00;7.25;;;1.08;;
75520;SDS011;64102;48.628;9.002;2023-10-13T05:04:44;7.72;;;0.70;;
75520;SDS011;64102;48.628;9.002;2023-10-13T05:07:27;8.93;;;0.70;;
75520;SDS011;64102;48.628;9.002;2023-10-13T05:10:11;7.05;;;0.82;;
75520;SDS011;64102;48.628;9.002;2023-10-13T05:12:55;7.68;;;0.80;;
75520;SDS011;64102;48.628;9.002;2023-10-13T05:15:53;5.85;;;0.60;;
75520;SDS011;64102;48.628;9.002;2023-10-13T05:18:37;7.18;;;0.63;;
75520;SDS011;64102;48.628;9.002;2023-10-13T05:21:21;7.82;;;0.70;;
75520;SDS011;64102;48.628;9.002;2023-10-13T05:24:05;7.30;;;0.82;;
75520;SDS011;64102;48.628;9.002;2023-10-13T05:26:50;5.95;;;0.60;;
75520;SDS011;64102;48.628;9.002;2023-10-13T05:29:43;8.13;;;0.80;;
75520;SDS011;64102;48.628;9.002;2023-10-13T05:32:29;6.90;;;0.60;;
75520;SDS011;64102;48.628;9.002;2023-10-13T05:35:13;10.60;;;0.90;;
75520;SDS011;64102;48.628;9.002;2023-10-13T05:37:57;8.35;;;1.05;;
75520;SDS011;64102;48.628;9.002;2023-10-13T05:43:42;7.57;;;0.75;;
75520;SDS011;64102;48.628;9.002;2023-10-13T05:46:26;8.27;;;0.90;;
75520;SDS011;64102;48.628;9.002;2023-10-13T05:48:52;8.25;;;0.52;;
75520;SDS011;64102;48.628;9.002;2023-10-13T05:51:25;6.28;;;0.55;;
75520;SDS011;64102;48.628;9.002;2023-10-13T05:54:00;6.25;;;0.70;;
75520;SDS011;64102;48.628;9.002;2023-10-13T05:59:27;7.20;;;0.50;;
75520;SDS011;64102;48.628;9.002;2023-10-13T06:02:15;7.55;;;0.60;;
75520;SDS011;64102;48.628;9.002;2023-10-13T06:05:10;7.95;;;0.57;;
75520;SDS011;64102;48.628;9.002;2023-10-13T06:10:40;7.35;;;0.40;;
75520;SDS011;64102;48.628;9.002;2023-10-13T06:13:24;7.15;;;0.60;;
75520;SDS011;64102;48.628;9.002;2023-10-13T06:16:08;7.65;;;0.70;;
75520;SDS011;64102;48.628;9.002;2023-10-13T06:18:55;6.57;;;0.77;;
75520;SDS011;64102;48.628;9.002;2023-10-13T06:21:39;13.02;;;0.70;;
75520;SDS011;64102;48.628;9.002;2023-10-13T06:24:23;5.68;;;0.50;;
75520;SDS011;64102;48.628;9.002;2023-10-13T06:27:07;7.40;;;0.43;;
75520;SDS011;64102;48.628;9.002;2023-10-13T06:29:50;6.47;;;0.60;;
75520;SDS011;64102;48.628;9.002;2023-10-13T06:32:18;7.93;;;0.73;;
75520;SDS011;64102;48.628;9.002;2023-10-13T06:34:53;6.68;;;0.63;;
75520;SDS011;64102;48.628;9.002;2023-10-13T06:37:23;8.02;;;0.70;;
75520;SDS011;64102;48.628;9.002;2023-10-13T06:39:50;7.32;;;0.68;;
75520;SDS011;64102;48.628;9.002;2023-10-13T06:42:16;8.05;;;0.60;;
75520;SDS011;64102;48.628;9.002;2023-10-13T06:44:44;9.10;;;0.60;;
75520;SDS011;64102;48.628;9.002;2023-10-13T06:47:11;6.88;;;0.60;;
75520;SDS011;64102;48.628;9.002;2023-10-13T06:49:37;7.32;;;0.63;;
75520;SDS011;64102;48.628;9.002;2023-10-13T06:52:04;6.85;;;0.68;;
75520;SDS011;64102;48.628;9.002;2023-10-13T06:54:32;7.00;;;0.57;;
75520;SDS011;64102;48.628;9.002;2023-10-13T06:57:00;7.80;;;0.80;;
75520;SDS011;64102;48.628;9.002;2023-10-13T06:59:28;9.30;;;0.73;;
75520;SDS011;64102;48.628;9.002;2023-10-13T07:01:57;6.93;;;0.70;;
75520;SDS011;64102;48.628;9.002;2023-10-13T07:04:34;7.43;;;0.88;;
75520;SDS011;64102;48.628;9.002;2023-10-13T07:07:04;8.10;;;0.90;;
75520;SDS011;64102;48.628;9.002;2023-10-13T07:09:30;6.88;;;0.47;;
75520;SDS011;64102;48.628;9.002;2023-10-13T07:11:59;6.95;;;0.75;;
75520;SDS011;64102;48.628;9.002;2023-10-13T07:14:29;8.25;;;0.73;;
75520;SDS011;64102;48.628;9.002;2023-10-13T07:17:02;9.52;;;0.88;;
75520;SDS011;64102;48.628;9.002;2023-10-13T07:19:29;10.73;;;1.20;;
75520;SDS011;64102;48.628;9.002;2023-10-13T07:21:56;9.48;;;0.70;;
75520;SDS011;64102;48.628;9.002;2023-10-13T07:24:27;8.52;;;1.48;;
75520;SDS011;64102;48.628;9.002;2023-10-13T07:27:00;7.57;;;0.93;;
75520;SDS011;64102;48.628;9.002;2023-10-13T07:29:30;7.20;;;0.63;;
75520;SDS011;64102;48.628;9.002;2023-10-13T07:31:59;6.78;;;0.73;;
75520;SDS011;64102;48.628;9.002;2023-10-13T07:34:27;8.82;;;0.50;;
75520;SDS011;64102;48.628;9.002;2023-10-13T07:36:56;8.00;;;0.60;;
75520;SDS011;64102;48.628;9.002;2023-10-13T07:39:26;6.50;;;0.63;;
75520;SDS011;64102;48.628;9.002;2023-10-13T07:41:53;9.02;;;0.50;;
75520;SDS011;64102;48.628;9.002;2023-10-13T07:44:29;6.05;;;0.50;;
75520;SDS011;64102;48.628;9.002;2023-10-13T07:46:58;7.60;;;0.55;;
75520;SDS011;64102;48.628;9.002;2023-10-13T07:49:28;6.40;;;0.40;;
75520;SDS011;64102;48.628;9.002;2023-10-13T07:52:00;6.80;;;0.77;;
75520;SDS011;64102;48.628;9.002;2023-10-13T07:54:55;8.25;;;0.82;;
75520;SDS011;64102;48.628;9.002;2023-10-13T07:57:25;7.75;;;0.70;;
75520;SDS011;64102;48.628;9.002;2023-10-13T07:59:54;10.48;;;1.02;;
75520;SDS011;64102;48.628;9.002;2023-10-13T08:03:00;6.48;;;0.60;;
75520;SDS011;64102;48.628;9.002;2023-10-13T08:05:52;5.13;;;0.70;;
75520;SDS011;64102;48.628;9.002;2023-10-13T08:08:24;8.43;;;0.60;;
75520;SDS011;64102;48.628;9.002;2023-10-13T08:11:00;9.55;;;0.95;;
75520;SDS011;64102;48.628;9.002;2023-10-13T08:13:34;6.85;;;0.80;;
75520;SDS011;64102;48.628;9.002;2023-10-13T08:16:02;7.65;;;0.55;;
75520;SDS011;64102;48.628;9.002;2023-10-13T08:18:32;5.72;;;0.57;;
75520;SDS011;64102;48.628;9.002;2023-10-13T08:20:58;8.13;;;0.80;;
75520;SDS011;64102;48.628;9.002;2023-10-13T08:23:31;4.57;;;0.50;;
75520;SDS011;64102;48.628;9.002;2023-10-13T08:26:15;5.43;;;0.50;;
75520;SDS011;64102;48.628;9.002;2023-10-13T08:28:59;7.13;;;0.63;;
75520;SDS011;64102;48.628;9.002;2023-10-13T08:31:50;5.78;;;0.63;;
75520;SDS011;64102;48.628;9.002;2023-10-13T08:34:35;7.07;;;0.70;;
75520;SDS011;64102;48.628;9.002;2023-10-13T08:37:14;11.05;;;0.90;;
75520;SDS011;64102;48.628;9.002;2023-10-13T08:39:48;7.43;;;0.80;;
75520;SDS011;64102;48.628;9.002;2023-10-13T08:42:25;6.40;;;0.60;;
75520;SDS011;64102;48.628;9.002;2023-10-13T08:45:14;9.30;;;0.63;;
75520;SDS011;64102;48.628;9.002;2023-10-13T08:47:49;6.13;;;1.17;;
75520;SDS011;64102;48.628;9.002;2023-10-13T08:50:34;7.68;;;0.60;;
75520;SDS011;64102;48.628;9.002;2023-10-13T08:56:08;14.30;;;1.17;;
75520;SDS011;64102;48.628;9.002;2023-10-13T08:58:42;7.32;;;0.73;;
75520;SDS011;64102;48.628;9.002;2023-10-13T09:01:27;6.15;;;0.60;;
75520;SDS011;64102;48.628;9.002;2023-10-13T09:04:11;7.25;;;0.68;;
75520;SDS011;64102;48.628;9.002;2023-10-13T09:07:04;6.32;;;0.60;;
75520;SDS011;64102;48.628;9.002;2023-10-13T09:09:30;6.70;;;1.10;;
75520;SDS011;64102;48.628;9.002;2023-10-13T09:12:53;8.52;;;0.75;;
75520;SDS011;64102;48.628;9.002;2023-10-13T09:14:51;6.65;;;0.68;;
75520;SDS011;64102;48.628;9.002;2023-10-13T09:17:23;7.10;;;1.23;;
75520;SDS011;64102;48.628;9.002;2023-10-13T09:20:09;11.57;;;1.58;;
75520;SDS011;64102;48.628;9.002;2023-10-13T09:22:47;5.70;;;0.60;;
75520;SDS011;64102;48.628;9.002;2023-10-13T09:25:36;7.65;;;0.93;;
75520;SDS011;64102;48.628;9.002;2023-10-13T09:30:44;6.50;;;0.90;;
75520;SDS011;64102;48.628;9.002;2023-10-13T09:33:11;7.97;;;1.67;;
75520;SDS011;64102;48.628;9.002;2023-10-13T09:35:45;7.47;;;1.08;;
75520;SDS011;64102;48.628;9.002;2023-10-13T09:38:15;8.85;;;0.80;;
75520;SDS011;64102;48.628;9.002;2023-10-13T09:40:49;8.02;;;0.98;;
75520;SDS011;64102;48.628;9.002;2023-10-13T09:43:18;6.35;;;1.58;;
75520;SDS011;64102;48.628;9.002;2023-10-13T09:45:47;6.50;;;1.08;;
75520;SDS011;64102;48.628;9.002;2023-10-13T09:48:38;6.65;;;1.65;;
75520;SDS011;64102;48.628;9.002;2023-10-13T09:51:22;9.80;;;1.15;;
75520;SDS011;64102;48.628;9.002;2023-10-13T09:53:58;6.35;;;1.52;;
75520;SDS011;64102;48.628;9.002;2023-10-13T09:56:38;6.70;;;0.90;;
75520;SDS011;64102;48.628;9.002;2023-10-13T09:59:18;6.43;;;0.93;;
75520;SDS011;64102;48.628;9.002;2023-10-13T10:01:48;7.45;;;1.30;;
75520;SDS011;64102;48.628;9.002;2023-10-13T10:04:22;5.90;;;0.82;;
75520;SDS011;64102;48.628;9.002;2023-10-13T10:06:57;6.80;;;0.85;;
75520;SDS011;64102;48.628;9.002;2023-10-13T10:09:30;6.53;;;0.85;;
75520;SDS011;64102;48.628;9.002;2023-10-13T10:17:07;8.30;;;1.35;;
75520;SDS011;64102;48.628;9.002;2023-10-13T10:19:33;6.43;;;1.80;;
75520;SDS011;64102;48.628;9.002;2023-10-13T10:22:30;6.95;;;1.23;;
75520;SDS011;64102;48.628;9.002;2023-10-13T10:25:02;9.05;;;2.45;;
75520;SDS011;64102;48.628;9.002;2023-10-13T10:27:31;6.72;;;1.20;;
75520;SDS011;64102;48.628;9.002;2023-10-13T10:29:58;6.75;;;1.45;;
75520;SDS011;64102;48.628;9.002;2023-10-13T10:32:33;8.27;;;2.37;;
75520;SDS011;64102;48.628;9.002;2023-10-13T10:35:08;8.52;;;2.40;;
75520;SDS011;64102;48.628;9.002;2023-10-13T10:37:45;8.00;;;1.15;;
75520;SDS011;64102;48.628;9.002;2023-10-13T10:40:14;7.80;;;1.23;;
75520;SDS011;64102;48.628;9.002;2023-10-13T10:43:01;7.53;;;1.23;;
75520;SDS011;64102;48.628;9.002;2023-10-13T10:45:28;7.38;;;0.63;;
75520;SDS011;64102;48.628;9.002;2023-10-13T10:47:59;8.52;;;0.85;;
75520;SDS011;64102;48.628;9.002;2023-10-13T10:50:26;6.05;;;0.60;;
75520;SDS011;64102;48.628;9.002;2023-10-13T10:53:03;7.53;;;1.90;;
75520;SDS011;64102;48.628;9.002;2023-10-13T10:55:33;7.75;;;1.65;;
75520;SDS011;64102;48.628;9.002;2023-10-13T10:58:02;8.35;;;0.90;;
75520;SDS011;64102;48.628;9.002;2023-10-13T11:00:31;7.43;;;1.25;;
75520;SDS011;64102;48.628;9.002;2023-10-13T11:03:22;6.28;;;1.50;;
75520;SDS011;64102;48.628;9.002;2023-10-13T11:05:47;8.67;;;1.60;;
75520;SDS011;64102;48.628;9.002;2023-10-13T11:08:24;6.72;;;1.52;;
75520;SDS011;64102;48.628;9.002;2023-10-13T11:10:56;8.68;;;1.70;;
75520;SDS011;64102;48.628;9.002;2023-10-13T11:13:40;7.13;;;1.00;;
75520;SDS011;64102;48.628;9.002;2023-10-13T11:16:19;6.78;;;1.70;;
75520;SDS011;64102;48.628;9.002;2023-10-13T11:19:02;7.53;;;2.20;;
75520;SDS011;64102;48.628;9.002;2023-10-13T11:21:30;7.97;;;2.15;;
75520;SDS011;64102;48.628;9.002;2023-10-13T11:23:56;7.63;;;1.88;;
75520;SDS011;64102;48.628;9.002;2023-10-13T11:26:32;7.53;;;2.17;;
75520;SDS011;64102;48.628;9.002;2023-10-13T11:28:58;7.65;;;2.13;;
75520;SDS011;64102;48.628;9.002;2023-10-13T11:31:23;8.45;;;2.53;;
75520;SDS011;64102;48.628;9.002;2023-10-13T11:33:49;10.95;;;3.60;;
75520;SDS011;64102;48.628;9.002;2023-10-13T11:36:15;7.15;;;1.60;;
75520;SDS011;64102;48.628;9.002;2023-10-13T11:38:49;7.57;;;2.28;;
75520;SDS011;64102;48.628;9.002;2023-10-13T11:41:16;7.15;;;3.10;;
75520;SDS011;64102;48.628;9.002;2023-10-13T11:43:46;6.80;;;1.90;;
75520;SDS011;64102;48.628;9.002;2023-10-13T11:46:26;7.60;;;2.80;;
75520;SDS011;64102;48.628;9.002;2023-10-13T11:49:04;6.93;;;2.45;;
75520;SDS011;64102;48.628;9.002;2023-10-13T11:51:44;8.43;;;2.60;;
75520;SDS011;64102;48.628;9.002;2023-10-13T11:54:17;6.40;;;4.30;;
75520;SDS011;64102;48.628;9.002;2023-10-13T11:56:46;8.75;;;3.30;;
75520;SDS011;64102;48.628;9.002;2023-10-13T11:59:12;8.98;;;3.38;;
75520;SDS011;64102;48.628;9.002;2023-10-13T12:01:47;8.43;;;2.78;;
75520;SDS011;64102;48.628;9.002;2023-10-13T12:04:32;7.13;;;3.38;;
75520;SDS011;64102;48.628;9.002;2023-10-13T12:07:05;9.88;;;4.68;;
75520;SDS011;64102;48.628;9.002;2023-10-13T12:09:50;8.20;;;2.78;;
75520;SDS011;64102;48.628;9.002;2023-10-13T12:12:19;7.75;;;1.90;;
75520;SDS011;64102;48.628;9.002;2023-10-13T12:14:45;8.20;;;2.83;;
75520;SDS011;64102;48.628;9.002;2023-10-13T12:17:24;7.55;;;1.73;;
75520;SDS011;64102;48.628;9.002;2023-10-13T12:19:59;7.45;;;1.75;;
75520;SDS011;64102;48.628;9.002;2023-10-13T12:22:34;7.65;;;2.20;;
75520;SDS011;64102;48.628;9.002;2023-10-13T12:25:16;5.70;;;1.63;;
75520;SDS011;64102;48.628;9.002;2023-10-13T12:28:09;8.07;;;2.85;;
75520;SDS011;64102;48.628;9.002;2023-10-13T12:30:46;8.45;;;1.80;;
75520;SDS011;64102;48.628;9.002;2023-10-13T12:33:16;11.55;;;1.83;;
75520;SDS011;64102;48.628;9.002;2023-10-13T12:35:50;6.43;;;1.98;;
75520;SDS011;64102;48.628;9.002;2023-10-13T12:38:42;8.01;;;1.60;;
75520;SDS011;64102;48.628;9.002;2023-10-13T12:41:14;6.25;;;1.67;;
75520;SDS011;64102;48.628;9.002;2023-10-13T12:43:58;7.57;;;2.50;;
75520;SDS011;64102;48.628;9.002;2023-10-13T12:46:46;7.32;;;1.65;;
75520;SDS011;64102;48.628;9.002;2023-10-13T12:49:34;7.47;;;2.13;;
75520;SDS011;64102;48.628;9.002;2023-10-13T12:52:05;9.10;;;2.15;;
75520;SDS011;64102;48.628;9.002;2023-10-13T12:54:41;7.03;;;1.88;;
75520;SDS011;64102;48.628;9.002;2023-10-13T12:59:52;7.45;;;1.35;;
75520;SDS011;64102;48.628;9.002;2023-10-13T13:02:21;6.97;;;1.80;;
75520;SDS011;64102;48.628;9.002;2023-10-13T13:04:51;5.75;;;1.65;;
75520;SDS011;64102;48.628;9.002;2023-10-13T13:07:21;6.00;;;2.23;;
75520;SDS011;64102;48.628;9.002;2023-10-13T13:09:46;7.00;;;1.37;;
75520;SDS011;64102;48.628;9.002;2023-10-13T13:12:12;7.20;;;1.80;;
75520;SDS011;64102;48.628;9.002;2023-10-13T13:14:38;6.95;;;1.80;;
75520;SDS011;64102;48.628;9.002;2023-10-13T13:17:06;7.20;;;1.65;;
75520;SDS011;64102;48.628;9.002;2023-10-13T13:19:35;6.77;;;2.70;;
75520;SDS011;64102;48.628;9.002;2023-10-13T13:22:04;7.13;;;2.33;;
75520;SDS011;64102;48.628;9.002;2023-10-13T13:24:30;6.47;;;1.58;;
75520;SDS011;64102;48.628;9.002;2023-10-13T13:26:56;6.25;;;2.50;;
75520;SDS011;64102;48.628;9.002;2023-10-13T13:29:27;6.43;;;2.00;;
75520;SDS011;64102;48.628;9.002;2023-10-13T13:31:54;8.52;;;1.52;;
75520;SDS011;64102;48.628;9.002;2023-10-13T13:34:20;9.27;;;2.65;;
75520;SDS011;64102;48.628;9.002;2023-10-13T13:36:46;8.48;;;3.80;;
75520;SDS011;64102;48.628;9.002;2023-10-13T13:39:17;7.70;;;2.65;;
75520;SDS011;64102;48.628;9.002;2023-10-13T13:41:53;6.10;;;1.73;;
75520;SDS011;64102;48.628;9.002;2023-10-13T13:44:21;6.75;;;2.20;;
75520;SDS011;64102;48.628;9.002;2023-10-13T13:46:54;8.15;;;2.13;;
75520;SDS011;64102;48.628;9.002;2023-10-13T13:49:21;7.68;;;1.83;;
75520;SDS011;64102;48.628;9.002;2023-10-13T13:51:54;8.57;;;1.92;;
75520;SDS011;64102;48.628;9.002;2023-10-13T13:54:20;7.75;;;2.33;;
75520;SDS011;64102;48.628;9.002;2023-10-13T13:56:46;7.40;;;2.65;;
75520;SDS011;64102;48.628;9.002;2023-10-13T13:59:12;6.13;;;2.60;;
75520;SDS011;64102;48.628;9.002;2023-10-13T14:01:41;8.63;;;2.10;;
75520;SDS011;64102;48.628;9.002;2023-10-13T14:04:09;6.03;;;1.40;;
75520;SDS011;64102;48.628;9.002;2023-10-13T14:06:35;7.18;;;1.92;;
75520;SDS011;64102;48.628;9.002;2023-10-13T14:09:00;6.57;;;1.92;;
75520;SDS011;64102;48.628;9.002;2023-10-13T14:11:40;5.40;;;1.70;;
75520;SDS011;64102;48.628;9.002;2023-10-13T14:14:13;5.93;;;1.77;;
75520;SDS011;64102;48.628;9.002;2023-10-13T14:16:54;5.95;;;1.70;;
75520;SDS011;64102;48.628;9.002;2023-10-13T14:19:28;7.68;;;2.25;;
75520;SDS011;64102;48.628;9.002;2023-10-13T14:21:54;7.10;;;1.77;;
75520;SDS011;64102;48.628;9.002;2023-10-13T14:24:20;6.07;;;1.70;;
75520;SDS011;64102;48.628;9.002;2023-10-13T14:26:59;5.85;;;0.80;;
75520;SDS011;64102;48.628;9.002;2023-10-13T14:29:46;11.38;;;1.02;;
75520;SDS011;64102;48.628;9.002;2023-10-13T14:32:13;6.90;;;1.05;;
75520;SDS011;64102;48.628;9.002;2023-10-13T14:34:40;5.07;;;1.52;;
75520;SDS011;64102;48.628;9.002;2023-10-13T14:37:06;5.78;;;1.92;;
75520;SDS011;64102;48.628;9.002;2023-10-13T14:39:32;4.20;;;0.63;;
75520;SDS011;64102;48.628;9.002;2023-10-13T14:42:00;7.28;;;0.90;;
75520;SDS011;64102;48.628;9.002;2023-10-13T14:44:27;6.93;;;0.85;;
75520;SDS011;64102;48.628;9.002;2023-10-13T14:46:53;7.72;;;0.90;;
75520;SDS011;64102;48.628;9.002;2023-10-13T14:49:21;5.80;;;1.98;;
75520;SDS011;64102;48.628;9.002;2023-10-13T14:51:46;6.23;;;1.07;;
75520;SDS011;64102;48.628;9.002;2023-10-13T14:54:12;6.93;;;1.25;;
75520;SDS011;64102;48.628;9.002;2023-10-13T14:56:39;6.43;;;1.27;;
75520;SDS011;64102;48.628;9.002;2023-10-13T14:59:07;6.25;;;0.70;;
75520;SDS011;64102;48.628;9.002;2023-10-13T15:01:39;7.00;;;0.90;;
75520;SDS011;64102;48.628;9.002;2023-10-13T15:04:05;5.43;;;1.33;;
75520;SDS011;64102;48.628;9.002;2023-10-13T15:06:31;6.65;;;1.25;;
75520;SDS011;64102;48.628;9.002;2023-10-13T15:08:58;6.55;;;0.73;;
75520;SDS011;64102;48.628;9.002;2023-10-13T15:11:24;5.65;;;0.90;;
75520;SDS011;64102;48.628;9.002;2023-10-13T15:14:03;10.25;;;0.70;;
75520;SDS011;64102;48.628;9.002;2023-10-13T15:16:31;6.15;;;0.65;;
75520;SDS011;64102;48.628;9.002;2023-10-13T15:18:58;8.32;;;0.98;;
75520;SDS011;64102;48.628;9.002;2023-10-13T15:21:28;9.60;;;0.73;;
75520;SDS011;64102;48.628;9.002;2023-10-13T15:24:06;7.93;;;0.90;;
75520;SDS011;64102;48.628;9.002;2023-10-13T15:26:52;7.22;;;0.70;;
75520;SDS011;64102;48.628;9.002;2023-10-13T15:29:26;8.07;;;0.95;;
75520;SDS011;64102;48.628;9.002;2023-10-13T15:31:55;11.32;;;0.70;;
75520;SDS011;64102;48.628;9.002;2023-10-13T15:34:26;7.57;;;0.95;;
75520;SDS011;64102;48.628;9.002;2023-10-13T15:36:53;5.57;;;0.40;;
75520;SDS011;64102;48.628;9.002;2023-10-13T15:39:21;7.32;;;1.02;;
75520;SDS011;64102;48.628;9.002;2023-10-13T15:41:53;7.53;;;1.08;;
75520;SDS011;64102;48.628;9.002;2023-10-13T15:44:19;6.07;;;0.73;;
75520;SDS011;64102;48.628;9.002;2023-10-13T15:46:47;5.40;;;1.13;;
75520;SDS011;64102;48.628;9.002;2023-10-13T15:49:14;5.82;;;0.60;;
75520;SDS011;64102;48.628;9.002;2023-10-13T15:51:40;4.47;;;0.93;;
75520;SDS011;64102;48.628;9.002;2023-10-13T15:54:05;6.43;;;0.67;;
75520;SDS011;64102;48.628;9.002;2023-10-13T15:56:49;5.38;;;0.50;;
75520;SDS011;64102;48.628;9.002;2023-10-13T15:59:22;6.25;;;0.75;;